Terminal Aerodrome Forecast
Issued by NWS

Current Version | Previous Version | Graphics & Text | Print | Product List | Glossary On
Versions: 1 2 3 4 5 6 7 8 9 10 11 12 13 14 15 16 17 18 19 20 21 22 23 24 25 26 27 28
000
FTUS41 KRNK 251138
TAFLWB
TAF
KLWB 251138Z 2512/2612 VRB03KT P6SM SKC
     FM251400 20005KT P6SM FEW050
     FM251700 21007KT P6SM SCT060 SCT250
     FM260000 20003KT P6SM SCT070 BKN250
     FM260900 VRB03KT 6SM BR SCT015 BKN250=

USA.gov is the U.S. government's official web portal to all federal, state and local government web resources and services.